sensor_id;sensor_type;location;lat;lon;timestamp;P1;durP1;ratioP1;P2;durP2;ratioP2
68384;SDS011;55336;43.062;25.626;2024-02-21T00:01:18;33.15;;;20.83;;
68384;SDS011;55336;43.062;25.626;2024-02-21T00:03:49;33.95;;;21.48;;
68384;SDS011;55336;43.062;25.626;2024-02-21T00:06:15;34.50;;;21.27;;
68384;SDS011;55336;43.062;25.626;2024-02-21T00:08:41;35.70;;;21.30;;
68384;SDS011;55336;43.062;25.626;2024-02-21T00:11:07;38.22;;;23.38;;
68384;SDS011;55336;43.062;25.626;2024-02-21T00:13:33;36.85;;;22.83;;
68384;SDS011;55336;43.062;25.626;2024-02-21T00:16:00;42.58;;;22.42;;
68384;SDS011;55336;43.062;25.626;2024-02-21T00:18:26;36.55;;;23.33;;
68384;SDS011;55336;43.062;25.626;2024-02-21T00:20:53;36.97;;;22.08;;
68384;SDS011;55336;43.062;25.626;2024-02-21T00:23:21;34.10;;;22.05;;
68384;SDS011;55336;43.062;25.626;2024-02-21T00:25:47;35.55;;;22.33;;
68384;SDS011;55336;43.062;25.626;2024-02-21T00:28:13;38.38;;;23.33;;
68384;SDS011;55336;43.062;25.626;2024-02-21T00:30:39;42.03;;;23.80;;
68384;SDS011;55336;43.062;25.626;2024-02-21T00:33:05;40.10;;;23.35;;
68384;SDS011;55336;43.062;25.626;2024-02-21T00:35:31;40.70;;;24.23;;
68384;SDS011;55336;43.062;25.626;2024-02-21T00:37:57;40.78;;;23.23;;
68384;SDS011;55336;43.062;25.626;2024-02-21T00:40:24;39.28;;;24.45;;
68384;SDS011;55336;43.062;25.626;2024-02-21T00:42:50;34.88;;;22.92;;
68384;SDS011;55336;43.062;25.626;2024-02-21T00:45:16;37.65;;;22.25;;
68384;SDS011;55336;43.062;25.626;2024-02-21T00:47:42;33.35;;;22.08;;
68384;SDS011;55336;43.062;25.626;2024-02-21T00:50:08;41.05;;;22.27;;
68384;SDS011;55336;43.062;25.626;2024-02-21T00:52:34;41.90;;;24.15;;
68384;SDS011;55336;43.062;25.626;2024-02-21T00:55:00;39.20;;;23.90;;
68384;SDS011;55336;43.062;25.626;2024-02-21T00:57:26;35.88;;;23.38;;
68384;SDS011;55336;43.062;25.626;2024-02-21T00:59:52;39.78;;;23.23;;
68384;SDS011;55336;43.062;25.626;2024-02-21T01:02:18;35.03;;;22.33;;
68384;SDS011;55336;43.062;25.626;2024-02-21T01:04:46;33.42;;;21.67;;
68384;SDS011;55336;43.062;25.626;2024-02-21T01:07:12;34.10;;;21.55;;
68384;SDS011;55336;43.062;25.626;2024-02-21T01:09:37;37.72;;;21.50;;
68384;SDS011;55336;43.062;25.626;2024-02-21T01:12:03;36.38;;;21.58;;
68384;SDS011;55336;43.062;25.626;2024-02-21T01:14:29;34.42;;;21.02;;
68384;SDS011;55336;43.062;25.626;2024-02-21T01:16:55;40.10;;;22.80;;
68384;SDS011;55336;43.062;25.626;2024-02-21T01:19:22;40.65;;;21.67;;
68384;SDS011;55336;43.062;25.626;2024-02-21T01:21:48;33.63;;;21.30;;
68384;SDS011;55336;43.062;25.626;2024-02-21T01:24:15;35.10;;;23.30;;
68384;SDS011;55336;43.062;25.626;2024-02-21T01:26:41;36.42;;;23.10;;
68384;SDS011;55336;43.062;25.626;2024-02-21T01:29:07;36.15;;;21.45;;
68384;SDS011;55336;43.062;25.626;2024-02-21T01:31:33;37.72;;;22.73;;
68384;SDS011;55336;43.062;25.626;2024-02-21T01:33:59;31.38;;;20.48;;
68384;SDS011;55336;43.062;25.626;2024-02-21T01:36:25;33.40;;;20.00;;
68384;SDS011;55336;43.062;25.626;2024-02-21T01:38:51;37.58;;;20.95;;
68384;SDS011;55336;43.062;25.626;2024-02-21T01:41:17;35.30;;;21.77;;
68384;SDS011;55336;43.062;25.626;2024-02-21T01:43:42;30.38;;;20.17;;
68384;SDS011;55336;43.062;25.626;2024-02-21T01:46:08;33.55;;;20.30;;
68384;SDS011;55336;43.062;25.626;2024-02-21T01:48:34;31.48;;;20.33;;
68384;SDS011;55336;43.062;25.626;2024-02-21T01:51:01;33.03;;;20.67;;
68384;SDS011;55336;43.062;25.626;2024-02-21T01:53:30;38.90;;;22.33;;
68384;SDS011;55336;43.062;25.626;2024-02-21T01:56:00;40.00;;;22.38;;
68384;SDS011;55336;43.062;25.626;2024-02-21T01:58:26;44.75;;;22.92;;
68384;SDS011;55336;43.062;25.626;2024-02-21T02:00:54;40.10;;;22.20;;
68384;SDS011;55336;43.062;25.626;2024-02-21T02:03:22;46.80;;;22.95;;
68384;SDS011;55336;43.062;25.626;2024-02-21T02:05:48;63.60;;;23.40;;
68384;SDS011;55336;43.062;25.626;2024-02-21T02:08:18;37.95;;;21.83;;
68384;SDS011;55336;43.062;25.626;2024-02-21T02:10:47;36.83;;;21.70;;
68384;SDS011;55336;43.062;25.626;2024-02-21T02:13:13;39.25;;;21.80;;
68384;SDS011;55336;43.062;25.626;2024-02-21T02:15:44;40.20;;;22.80;;
68384;SDS011;55336;43.062;25.626;2024-02-21T02:18:11;38.50;;;22.05;;
68384;SDS011;55336;43.062;25.626;2024-02-21T02:20:38;65.95;;;23.98;;
68384;SDS011;55336;43.062;25.626;2024-02-21T02:23:09;39.72;;;23.38;;
68384;SDS011;55336;43.062;25.626;2024-02-21T02:25:37;48.13;;;28.00;;
68384;SDS011;55336;43.062;25.626;2024-02-21T02:28:05;50.35;;;27.67;;
68384;SDS011;55336;43.062;25.626;2024-02-21T02:30:32;47.42;;;26.35;;
68384;SDS011;55336;43.062;25.626;2024-02-21T02:32:59;38.75;;;23.75;;
68384;SDS011;55336;43.062;25.626;2024-02-21T02:35:25;42.22;;;23.38;;
68384;SDS011;55336;43.062;25.626;2024-02-21T02:37:51;42.75;;;22.88;;
68384;SDS011;55336;43.062;25.626;2024-02-21T02:40:17;40.25;;;25.50;;
68384;SDS011;55336;43.062;25.626;2024-02-21T02:42:43;37.97;;;22.42;;
68384;SDS011;55336;43.062;25.626;2024-02-21T02:45:09;36.20;;;20.27;;
68384;SDS011;55336;43.062;25.626;2024-02-21T02:47:35;37.53;;;20.67;;
68384;SDS011;55336;43.062;25.626;2024-02-21T02:50:01;30.92;;;18.40;;
68384;SDS011;55336;43.062;25.626;2024-02-21T02:52:27;35.28;;;18.88;;
68384;SDS011;55336;43.062;25.626;2024-02-21T02:54:53;29.98;;;18.73;;
68384;SDS011;55336;43.062;25.626;2024-02-21T02:57:21;33.30;;;18.95;;
68384;SDS011;55336;43.062;25.626;2024-02-21T02:59:48;32.47;;;19.40;;
68384;SDS011;55336;43.062;25.626;2024-02-21T03:02:14;31.75;;;19.10;;
68384;SDS011;55336;43.062;25.626;2024-02-21T03:04:40;32.15;;;18.48;;
68384;SDS011;55336;43.062;25.626;2024-02-21T03:07:08;32.08;;;18.65;;
68384;SDS011;55336;43.062;25.626;2024-02-21T03:09:36;31.67;;;18.05;;
68384;SDS011;55336;43.062;25.626;2024-02-21T03:12:03;32.08;;;18.90;;
68384;SDS011;55336;43.062;25.626;2024-02-21T03:14:29;32.38;;;18.27;;
68384;SDS011;55336;43.062;25.626;2024-02-21T03:16:56;28.88;;;17.98;;
68384;SDS011;55336;43.062;25.626;2024-02-21T03:19:22;28.48;;;18.48;;
68384;SDS011;55336;43.062;25.626;2024-02-21T03:21:49;34.38;;;19.52;;
68384;SDS011;55336;43.062;25.626;2024-02-21T03:24:15;33.10;;;18.85;;
68384;SDS011;55336;43.062;25.626;2024-02-21T03:26:41;33.85;;;20.10;;
68384;SDS011;55336;43.062;25.626;2024-02-21T03:29:08;33.25;;;19.95;;
68384;SDS011;55336;43.062;25.626;2024-02-21T03:31:35;33.30;;;19.38;;
68384;SDS011;55336;43.062;25.626;2024-02-21T03:34:01;34.47;;;19.88;;
68384;SDS011;55336;43.062;25.626;2024-02-21T03:36:27;34.20;;;20.17;;
68384;SDS011;55336;43.062;25.626;2024-02-21T03:38:53;37.95;;;20.45;;
68384;SDS011;55336;43.062;25.626;2024-02-21T03:41:20;34.45;;;20.27;;
68384;SDS011;55336;43.062;25.626;2024-02-21T03:43:46;34.08;;;19.10;;
68384;SDS011;55336;43.062;25.626;2024-02-21T03:46:12;38.75;;;20.15;;
68384;SDS011;55336;43.062;25.626;2024-02-21T03:48:38;38.63;;;19.63;;
68384;SDS011;55336;43.062;25.626;2024-02-21T03:51:04;35.20;;;19.55;;
68384;SDS011;55336;43.062;25.626;2024-02-21T03:53:30;37.30;;;19.27;;
68384;SDS011;55336;43.062;25.626;2024-02-21T03:55:56;36.03;;;20.05;;
68384;SDS011;55336;43.062;25.626;2024-02-21T03:58:25;34.22;;;19.42;;
68384;SDS011;55336;43.062;25.626;2024-02-21T04:00:50;37.92;;;19.70;;
68384;SDS011;55336;43.062;25.626;2024-02-21T04:03:17;34.72;;;19.85;;
68384;SDS011;55336;43.062;25.626;2024-02-21T04:05:43;34.42;;;20.58;;
68384;SDS011;55336;43.062;25.626;2024-02-21T04:08:08;35.22;;;20.65;;
68384;SDS011;55336;43.062;25.626;2024-02-21T04:10:34;37.53;;;19.90;;
68384;SDS011;55336;43.062;25.626;2024-02-21T04:13:00;37.13;;;20.63;;
68384;SDS011;55336;43.062;25.626;2024-02-21T04:15:26;35.35;;;19.17;;
68384;SDS011;55336;43.062;25.626;2024-02-21T04:17:52;34.20;;;19.55;;
68384;SDS011;55336;43.062;25.626;2024-02-21T04:20:18;35.30;;;19.98;;
68384;SDS011;55336;43.062;25.626;2024-02-21T04:22:44;34.03;;;20.02;;
68384;SDS011;55336;43.062;25.626;2024-02-21T04:25:11;36.97;;;21.70;;
68384;SDS011;55336;43.062;25.626;2024-02-21T04:27:38;39.22;;;23.40;;
68384;SDS011;55336;43.062;25.626;2024-02-21T04:30:04;40.55;;;22.35;;
68384;SDS011;55336;43.062;25.626;2024-02-21T04:32:31;38.97;;;22.38;;
68384;SDS011;55336;43.062;25.626;2024-02-21T04:34:57;42.63;;;22.80;;
68384;SDS011;55336;43.062;25.626;2024-02-21T04:37:23;37.33;;;22.40;;
68384;SDS011;55336;43.062;25.626;2024-02-21T04:39:49;46.17;;;24.30;;
68384;SDS011;55336;43.062;25.626;2024-02-21T04:42:16;42.85;;;21.48;;
68384;SDS011;55336;43.062;25.626;2024-02-21T04:44:42;50.00;;;22.05;;
68384;SDS011;55336;43.062;25.626;2024-02-21T04:47:08;43.28;;;21.58;;
68384;SDS011;55336;43.062;25.626;2024-02-21T04:49:34;45.70;;;22.25;;
68384;SDS011;55336;43.062;25.626;2024-02-21T04:52:00;48.78;;;22.33;;
68384;SDS011;55336;43.062;25.626;2024-02-21T04:54:26;42.15;;;22.80;;
68384;SDS011;55336;43.062;25.626;2024-02-21T04:56:52;41.88;;;22.33;;
68384;SDS011;55336;43.062;25.626;2024-02-21T04:59:18;50.10;;;23.48;;
68384;SDS011;55336;43.062;25.626;2024-02-21T05:01:44;48.67;;;24.40;;
68384;SDS011;55336;43.062;25.626;2024-02-21T05:04:10;39.00;;;23.27;;
68384;SDS011;55336;43.062;25.626;2024-02-21T05:06:39;52.55;;;23.23;;
68384;SDS011;55336;43.062;25.626;2024-02-21T05:09:06;47.15;;;22.38;;
68384;SDS011;55336;43.062;25.626;2024-02-21T05:11:34;54.30;;;25.98;;
68384;SDS011;55336;43.062;25.626;2024-02-21T05:14:00;63.45;;;27.48;;
68384;SDS011;55336;43.062;25.626;2024-02-21T05:16:26;62.53;;;26.38;;
68384;SDS011;55336;43.062;25.626;2024-02-21T05:18:52;63.03;;;28.38;;
68384;SDS011;55336;43.062;25.626;2024-02-21T05:21:18;55.90;;;27.63;;
68384;SDS011;55336;43.062;25.626;2024-02-21T05:23:44;54.08;;;26.35;;
68384;SDS011;55336;43.062;25.626;2024-02-21T05:26:10;55.47;;;27.38;;
68384;SDS011;55336;43.062;25.626;2024-02-21T05:28:36;46.70;;;25.92;;
68384;SDS011;55336;43.062;25.626;2024-02-21T05:31:02;59.97;;;28.95;;
68384;SDS011;55336;43.062;25.626;2024-02-21T05:33:29;57.13;;;27.00;;
68384;SDS011;55336;43.062;25.626;2024-02-21T05:35:56;71.90;;;29.40;;
68384;SDS011;55336;43.062;25.626;2024-02-21T05:38:22;66.07;;;30.05;;
68384;SDS011;55336;43.062;25.626;2024-02-21T05:40:47;68.05;;;29.90;;
68384;SDS011;55336;43.062;25.626;2024-02-21T05:43:13;69.45;;;30.58;;
68384;SDS011;55336;43.062;25.626;2024-02-21T05:45:39;72.57;;;31.38;;
68384;SDS011;55336;43.062;25.626;2024-02-21T05:48:06;67.50;;;32.42;;
68384;SDS011;55336;43.062;25.626;2024-02-21T05:50:32;59.13;;;29.67;;
68384;SDS011;55336;43.062;25.626;2024-02-21T05:52:58;60.05;;;30.23;;
68384;SDS011;55336;43.062;25.626;2024-02-21T05:55:24;56.75;;;27.92;;
68384;SDS011;55336;43.062;25.626;2024-02-21T05:57:53;54.20;;;27.73;;
68384;SDS011;55336;43.062;25.626;2024-02-21T06:00:20;53.95;;;27.00;;
68384;SDS011;55336;43.062;25.626;2024-02-21T06:02:46;61.67;;;29.52;;
68384;SDS011;55336;43.062;25.626;2024-02-21T06:05:13;63.90;;;29.33;;
68384;SDS011;55336;43.062;25.626;2024-02-21T06:07:38;67.25;;;28.90;;
68384;SDS011;55336;43.062;25.626;2024-02-21T06:10:06;65.93;;;29.40;;
68384;SDS011;55336;43.062;25.626;2024-02-21T06:12:32;58.50;;;27.90;;
68384;SDS011;55336;43.062;25.626;2024-02-21T06:14:58;48.97;;;26.38;;
68384;SDS011;55336;43.062;25.626;2024-02-21T06:17:24;63.03;;;28.02;;
68384;SDS011;55336;43.062;25.626;2024-02-21T06:19:50;60.92;;;29.35;;
68384;SDS011;55336;43.062;25.626;2024-02-21T06:22:17;60.30;;;33.60;;
68384;SDS011;55336;43.062;25.626;2024-02-21T06:24:43;60.25;;;30.42;;
68384;SDS011;55336;43.062;25.626;2024-02-21T06:27:09;59.67;;;32.33;;
68384;SDS011;55336;43.062;25.626;2024-02-21T06:29:36;69.57;;;34.90;;
68384;SDS011;55336;43.062;25.626;2024-02-21T06:32:02;85.93;;;43.83;;
68384;SDS011;55336;43.062;25.626;2024-02-21T06:34:28;102.80;;;50.60;;
68384;SDS011;55336;43.062;25.626;2024-02-21T06:36:54;83.15;;;43.83;;
68384;SDS011;55336;43.062;25.626;2024-02-21T06:39:20;80.00;;;42.35;;
68384;SDS011;55336;43.062;25.626;2024-02-21T06:41:48;79.47;;;43.25;;
68384;SDS011;55336;43.062;25.626;2024-02-21T06:44:16;75.63;;;41.17;;
68384;SDS011;55336;43.062;25.626;2024-02-21T06:46:42;65.60;;;39.03;;
68384;SDS011;55336;43.062;25.626;2024-02-21T06:49:08;69.20;;;39.40;;
68384;SDS011;55336;43.062;25.626;2024-02-21T06:51:34;74.68;;;39.45;;
68384;SDS011;55336;43.062;25.626;2024-02-21T06:54:00;76.00;;;40.95;;
68384;SDS011;55336;43.062;25.626;2024-02-21T06:56:26;71.78;;;41.08;;
68384;SDS011;55336;43.062;25.626;2024-02-21T06:58:53;69.13;;;37.63;;
68384;SDS011;55336;43.062;25.626;2024-02-21T07:01:23;67.50;;;38.13;;
68384;SDS011;55336;43.062;25.626;2024-02-21T07:03:49;70.78;;;38.60;;
68384;SDS011;55336;43.062;25.626;2024-02-21T07:06:16;60.70;;;35.85;;
68384;SDS011;55336;43.062;25.626;2024-02-21T07:08:42;66.75;;;39.17;;
68384;SDS011;55336;43.062;25.626;2024-02-21T07:11:08;85.25;;;43.75;;
68384;SDS011;55336;43.062;25.626;2024-02-21T07:13:34;87.85;;;48.25;;
68384;SDS011;55336;43.062;25.626;2024-02-21T07:15:59;105.65;;;54.03;;
68384;SDS011;55336;43.062;25.626;2024-02-21T07:18:27;96.75;;;50.80;;
68384;SDS011;55336;43.062;25.626;2024-02-21T07:20:52;93.40;;;47.70;;
68384;SDS011;55336;43.062;25.626;2024-02-21T07:23:19;86.75;;;42.58;;
68384;SDS011;55336;43.062;25.626;2024-02-21T07:28:10;77.68;;;40.45;;
68384;SDS011;55336;43.062;25.626;2024-02-21T07:30:36;69.65;;;37.45;;
68384;SDS011;55336;43.062;25.626;2024-02-21T07:35:28;52.10;;;31.83;;
68384;SDS011;55336;43.062;25.626;2024-02-21T07:37:54;56.03;;;31.83;;
68384;SDS011;55336;43.062;25.626;2024-02-21T07:42:46;53.17;;;30.00;;
68384;SDS011;55336;43.062;25.626;2024-02-21T07:47:37;51.33;;;27.83;;
68384;SDS011;55336;43.062;25.626;2024-02-21T07:50:03;55.90;;;30.48;;
68384;SDS011;55336;43.062;25.626;2024-02-21T07:52:30;51.42;;;29.00;;
68384;SDS011;55336;43.062;25.626;2024-02-21T07:57:21;60.65;;;29.60;;
68384;SDS011;55336;43.062;25.626;2024-02-21T07:59:48;58.22;;;28.75;;
68384;SDS011;55336;43.062;25.626;2024-02-21T08:02:17;63.03;;;28.85;;
68384;SDS011;55336;43.062;25.626;2024-02-21T08:04:44;55.00;;;30.98;;
68384;SDS011;55336;43.062;25.626;2024-02-21T08:09:36;48.30;;;26.20;;
68384;SDS011;55336;43.062;25.626;2024-02-21T08:12:04;58.35;;;27.98;;
68384;SDS011;55336;43.062;25.626;2024-02-21T08:14:31;47.30;;;25.52;;
68384;SDS011;55336;43.062;25.626;2024-02-21T08:19:22;35.85;;;23.33;;
68384;SDS011;55336;43.062;25.626;2024-02-21T08:24:14;44.53;;;23.45;;
68384;SDS011;55336;43.062;25.626;2024-02-21T08:26:43;37.20;;;21.40;;
68384;SDS011;55336;43.062;25.626;2024-02-21T08:29:12;35.97;;;22.58;;
68384;SDS011;55336;43.062;25.626;2024-02-21T08:31:39;33.00;;;20.05;;
68384;SDS011;55336;43.062;25.626;2024-02-21T08:36:31;33.97;;;21.58;;
68384;SDS011;55336;43.062;25.626;2024-02-21T08:38:57;32.63;;;20.15;;
68384;SDS011;55336;43.062;25.626;2024-02-21T08:43:50;28.10;;;19.07;;
68384;SDS011;55336;43.062;25.626;2024-02-21T08:46:28;32.22;;;20.92;;
68384;SDS011;55336;43.062;25.626;2024-02-21T08:48:54;30.80;;;20.20;;
68384;SDS011;55336;43.062;25.626;2024-02-21T08:53:46;26.38;;;17.25;;
68384;SDS011;55336;43.062;25.626;2024-02-21T08:56:12;28.75;;;20.08;;
68384;SDS011;55336;43.062;25.626;2024-02-21T08:58:41;26.77;;;17.05;;
68384;SDS011;55336;43.062;25.626;2024-02-21T09:01:07;17.40;;;13.75;;
68384;SDS011;55336;43.062;25.626;2024-02-21T09:03:36;20.13;;;14.07;;
68384;SDS011;55336;43.062;25.626;2024-02-21T09:06:06;19.92;;;12.48;;
68384;SDS011;55336;43.062;25.626;2024-02-21T09:08:32;20.50;;;12.60;;
68384;SDS011;55336;43.062;25.626;2024-02-21T09:11:01;16.85;;;11.65;;
68384;SDS011;55336;43.062;25.626;2024-02-21T09:13:28;18.48;;;11.52;;
68384;SDS011;55336;43.062;25.626;2024-02-21T09:15:55;21.35;;;11.90;;
68384;SDS011;55336;43.062;25.626;2024-02-21T09:20:47;22.52;;;11.95;;
68384;SDS011;55336;43.062;25.626;2024-02-21T09:25:39;12.25;;;10.30;;
68384;SDS011;55336;43.062;25.626;2024-02-21T09:30:34;19.07;;;9.93;;
68384;SDS011;55336;43.062;25.626;2024-02-21T09:33:00;15.20;;;11.27;;
68384;SDS011;55336;43.062;25.626;2024-02-21T09:35:27;16.10;;;10.27;;
68384;SDS011;55336;43.062;25.626;2024-02-21T09:37:53;14.35;;;9.93;;
68384;SDS011;55336;43.062;25.626;2024-02-21T09:40:20;17.85;;;10.65;;
68384;SDS011;55336;43.062;25.626;2024-02-21T09:42:46;16.05;;;10.15;;
68384;SDS011;55336;43.062;25.626;2024-02-21T09:50:34;13.60;;;9.10;;
68384;SDS011;55336;43.062;25.626;2024-02-21T09:53:02;12.27;;;8.70;;
68384;SDS011;55336;43.062;25.626;2024-02-21T09:55:31;13.18;;;8.70;;
68384;SDS011;55336;43.062;25.626;2024-02-21T09:57:59;16.75;;;11.45;;
68384;SDS011;55336;43.062;25.626;2024-02-21T10:00:26;14.52;;;10.02;;
68384;SDS011;55336;43.062;25.626;2024-02-21T10:02:53;13.77;;;9.63;;
68384;SDS011;55336;43.062;25.626;2024-02-21T10:05:19;14.43;;;9.30;;
68384;SDS011;55336;43.062;25.626;2024-02-21T10:10:11;14.38;;;9.93;;
68384;SDS011;55336;43.062;25.626;2024-02-21T10:12:47;12.48;;;9.43;;
68384;SDS011;55336;43.062;25.626;2024-02-21T10:15:19;14.88;;;11.18;;
68384;SDS011;55336;43.062;25.626;2024-02-21T10:17:57;16.88;;;10.68;;
68384;SDS011;55336;43.062;25.626;2024-02-21T10:20:24;12.30;;;10.10;;
68384;SDS011;55336;43.062;25.626;2024-02-21T10:23:00;20.58;;;10.55;;
68384;SDS011;55336;43.062;25.626;2024-02-21T10:27:53;10.88;;;7.93;;
68384;SDS011;55336;43.062;25.626;2024-02-21T10:32:51;11.88;;;8.23;;
68384;SDS011;55336;43.062;25.626;2024-02-21T10:35:25;22.00;;;10.43;;
68384;SDS011;55336;43.062;25.626;2024-02-21T10:37:53;20.13;;;9.32;;
68384;SDS011;55336;43.062;25.626;2024-02-21T10:40:24;10.60;;;8.55;;
68384;SDS011;55336;43.062;25.626;2024-02-21T10:42:58;18.45;;;10.85;;
68384;SDS011;55336;43.062;25.626;2024-02-21T10:45:30;13.73;;;10.35;;
68384;SDS011;55336;43.062;25.626;2024-02-21T10:48:24;15.00;;;11.48;;
68384;SDS011;55336;43.062;25.626;2024-02-21T10:51:05;14.30;;;10.80;;
68384;SDS011;55336;43.062;25.626;2024-02-21T10:56:31;15.93;;;10.18;;
68384;SDS011;55336;43.062;25.626;2024-02-21T10:59:02;21.95;;;10.43;;
68384;SDS011;55336;43.062;25.626;2024-02-21T11:01:29;17.85;;;10.63;;
68384;SDS011;55336;43.062;25.626;2024-02-21T11:04:03;13.35;;;9.85;;
68384;SDS011;55336;43.062;25.626;2024-02-21T11:06:31;13.38;;;9.95;;
68384;SDS011;55336;43.062;25.626;2024-02-21T11:09:01;13.23;;;10.23;;
68384;SDS011;55336;43.062;25.626;2024-02-21T11:11:28;12.63;;;9.57;;
68384;SDS011;55336;43.062;25.626;2024-02-21T11:14:04;17.48;;;9.82;;
68384;SDS011;55336;43.062;25.626;2024-02-21T11:16:34;13.38;;;8.93;;
68384;SDS011;55336;43.062;25.626;2024-02-21T11:19:35;11.50;;;8.73;;
68384;SDS011;55336;43.062;25.626;2024-02-21T11:21:56;34.60;;;13.55;;
68384;SDS011;55336;43.062;25.626;2024-02-21T11:26:54;13.07;;;9.90;;
68384;SDS011;55336;43.062;25.626;2024-02-21T11:29:23;12.13;;;9.32;;
68384;SDS011;55336;43.062;25.626;2024-02-21T11:31:50;10.30;;;7.75;;
68384;SDS011;55336;43.062;25.626;2024-02-21T11:34:17;10.85;;;8.65;;
68384;SDS011;55336;43.062;25.626;2024-02-21T11:36:51;13.07;;;8.10;;
68384;SDS011;55336;43.062;25.626;2024-02-21T11:39:26;11.75;;;8.07;;
68384;SDS011;55336;43.062;25.626;2024-02-21T11:42:00;11.05;;;8.93;;
68384;SDS011;55336;43.062;25.626;2024-02-21T11:44:30;14.75;;;10.32;;
68384;SDS011;55336;43.062;25.626;2024-02-21T11:46:57;13.70;;;8.82;;
68384;SDS011;55336;43.062;25.626;2024-02-21T11:49:29;13.85;;;10.43;;
68384;SDS011;55336;43.062;25.626;2024-02-21T11:51:59;11.57;;;9.48;;
68384;SDS011;55336;43.062;25.626;2024-02-21T11:54:26;14.85;;;9.15;;
68384;SDS011;55336;43.062;25.626;2024-02-21T11:56:53;11.90;;;8.48;;
68384;SDS011;55336;43.062;25.626;2024-02-21T11:59:19;10.88;;;8.48;;
68384;SDS011;55336;43.062;25.626;2024-02-21T12:01:52;19.05;;;9.75;;
68384;SDS011;55336;43.062;25.626;2024-02-21T12:04:23;30.73;;;8.85;;
68384;SDS011;55336;43.062;25.626;2024-02-21T12:09:22;10.68;;;7.15;;
68384;SDS011;55336;43.062;25.626;2024-02-21T12:11:56;10.02;;;6.10;;
68384;SDS011;55336;43.062;25.626;2024-02-21T12:14:27;8.38;;;6.18;;
68384;SDS011;55336;43.062;25.626;2024-02-21T12:16:54;12.43;;;6.45;;
68384;SDS011;55336;43.062;25.626;2024-02-21T12:21:47;11.95;;;7.00;;
68384;SDS011;55336;43.062;25.626;2024-02-21T12:24:15;8.10;;;6.38;;
68384;SDS011;55336;43.062;25.626;2024-02-21T12:26:49;8.00;;;6.50;;
68384;SDS011;55336;43.062;25.626;2024-02-21T12:29:15;10.43;;;7.18;;
68384;SDS011;55336;43.062;25.626;2024-02-21T12:34:07;9.60;;;6.50;;
68384;SDS011;55336;43.062;25.626;2024-02-21T12:36:36;8.93;;;6.85;;
68384;SDS011;55336;43.062;25.626;2024-02-21T12:39:09;11.15;;;7.97;;
68384;SDS011;55336;43.062;25.626;2024-02-21T12:41:35;12.77;;;7.03;;
68384;SDS011;55336;43.062;25.626;2024-02-21T12:44:06;13.65;;;8.07;;
68384;SDS011;55336;43.062;25.626;2024-02-21T12:46:36;12.25;;;8.50;;
68384;SDS011;55336;43.062;25.626;2024-02-21T12:49:03;16.27;;;7.50;;
68384;SDS011;55336;43.062;25.626;2024-02-21T12:51:29;13.77;;;7.53;;
68384;SDS011;55336;43.062;25.626;2024-02-21T12:53:59;13.20;;;8.65;;
68384;SDS011;55336;43.062;25.626;2024-02-21T12:59:00;15.90;;;8.07;;
68384;SDS011;55336;43.062;25.626;2024-02-21T13:01:44;8.80;;;6.97;;
68384;SDS011;55336;43.062;25.626;2024-02-21T13:07:33;9.82;;;6.63;;
68384;SDS011;55336;43.062;25.626;2024-02-21T13:12:25;9.10;;;7.38;;
68384;SDS011;55336;43.062;25.626;2024-02-21T13:14:55;9.75;;;6.93;;
68384;SDS011;55336;43.062;25.626;2024-02-21T13:17:24;11.98;;;7.15;;
68384;SDS011;55336;43.062;25.626;2024-02-21T13:19:55;17.50;;;7.88;;
68384;SDS011;55336;43.062;25.626;2024-02-21T13:24:53;14.52;;;8.23;;
68384;SDS011;55336;43.062;25.626;2024-02-21T13:27:19;11.45;;;7.07;;
68384;SDS011;55336;43.062;25.626;2024-02-21T13:29:51;13.48;;;7.65;;
68384;SDS011;55336;43.062;25.626;2024-02-21T13:32:23;14.40;;;7.85;;
68384;SDS011;55336;43.062;25.626;2024-02-21T13:34:50;12.15;;;7.63;;
68384;SDS011;55336;43.062;25.626;2024-02-21T13:37:20;10.35;;;7.15;;
68384;SDS011;55336;43.062;25.626;2024-02-21T13:40:02;9.43;;;7.03;;
68384;SDS011;55336;43.062;25.626;2024-02-21T13:43:08;8.20;;;6.05;;
68384;SDS011;55336;43.062;25.626;2024-02-21T13:48:25;7.45;;;6.45;;
68384;SDS011;55336;43.062;25.626;2024-02-21T13:50:52;11.68;;;7.50;;
68384;SDS011;55336;43.062;25.626;2024-02-21T13:53:23;11.13;;;8.05;;
68384;SDS011;55336;43.062;25.626;2024-02-21T13:55:59;9.88;;;8.27;;
68384;SDS011;55336;43.062;25.626;2024-02-21T13:58:31;25.50;;;9.35;;
68384;SDS011;55336;43.062;25.626;2024-02-21T14:01:01;10.40;;;8.13;;
68384;SDS011;55336;43.062;25.626;2024-02-21T14:03:28;10.43;;;7.10;;
68384;SDS011;55336;43.062;25.626;2024-02-21T14:08:19;9.52;;;7.47;;
68384;SDS011;55336;43.062;25.626;2024-02-21T14:13:12;12.02;;;8.93;;
68384;SDS011;55336;43.062;25.626;2024-02-21T14:15:39;9.32;;;8.20;;
68384;SDS011;55336;43.062;25.626;2024-02-21T14:18:07;12.13;;;7.95;;
68384;SDS011;55336;43.062;25.626;2024-02-21T14:20:34;11.80;;;8.48;;
68384;SDS011;55336;43.062;25.626;2024-02-21T14:23:01;13.32;;;8.45;;
68384;SDS011;55336;43.062;25.626;2024-02-21T14:25:27;12.23;;;8.93;;
68384;SDS011;55336;43.062;25.626;2024-02-21T14:30:19;10.32;;;7.15;;
68384;SDS011;55336;43.062;25.626;2024-02-21T14:32:46;12.35;;;8.68;;
68384;SDS011;55336;43.062;25.626;2024-02-21T14:37:37;9.57;;;7.07;;
68384;SDS011;55336;43.062;25.626;2024-02-21T14:40:05;9.77;;;7.25;;
68384;SDS011;55336;43.062;25.626;2024-02-21T14:42:32;10.38;;;8.27;;
68384;SDS011;55336;43.062;25.626;2024-02-21T14:44:59;11.02;;;7.95;;
68384;SDS011;55336;43.062;25.626;2024-02-21T14:47:29;10.55;;;8.20;;
68384;SDS011;55336;43.062;25.626;2024-02-21T14:49:56;11.98;;;8.05;;
68384;SDS011;55336;43.062;25.626;2024-02-21T14:54:49;14.05;;;7.80;;
68384;SDS011;55336;43.062;25.626;2024-02-21T14:57:17;10.93;;;8.57;;
68384;SDS011;55336;43.062;25.626;2024-02-21T14:59:43;12.43;;;8.77;;
68384;SDS011;55336;43.062;25.626;2024-02-21T15:04:41;10.60;;;8.63;;
68384;SDS011;55336;43.062;25.626;2024-02-21T15:07:22;12.38;;;9.20;;
68384;SDS011;55336;43.062;25.626;2024-02-21T15:09:50;12.82;;;9.15;;
68384;SDS011;55336;43.062;25.626;2024-02-21T15:12:19;11.43;;;8.75;;
68384;SDS011;55336;43.062;25.626;2024-02-21T15:17:13;11.20;;;8.32;;
68384;SDS011;55336;43.062;25.626;2024-02-21T15:19:43;9.90;;;8.70;;
68384;SDS011;55336;43.062;25.626;2024-02-21T15:22:10;14.63;;;9.77;;
68384;SDS011;55336;43.062;25.626;2024-02-21T15:24:37;11.75;;;8.88;;
68384;SDS011;55336;43.062;25.626;2024-02-21T15:27:06;12.45;;;8.88;;
68384;SDS011;55336;43.062;25.626;2024-02-21T15:29:36;12.63;;;8.73;;
68384;SDS011;55336;43.062;25.626;2024-02-21T15:32:02;11.35;;;8.70;;
68384;SDS011;55336;43.062;25.626;2024-02-21T15:34:32;13.40;;;9.32;;
68384;SDS011;55336;43.062;25.626;2024-02-21T15:37:00;14.05;;;10.18;;
68384;SDS011;55336;43.062;25.626;2024-02-21T15:39:29;15.38;;;11.43;;
68384;SDS011;55336;43.062;25.626;2024-02-21T15:41:55;13.95;;;9.93;;
68384;SDS011;55336;43.062;25.626;2024-02-21T15:44:21;10.25;;;7.70;;
68384;SDS011;55336;43.062;25.626;2024-02-21T15:46:48;9.27;;;6.88;;